Skip Navigation LinksHome page > Weather > Current weather Skip Navigation Links

Current Weather

Jakutsk, Russia

For information only: do not use for flight planning or navigation.
Latest weather
Observation time Friday, July 29, 2016 2:30 PM JST
Local time Friday, July 29, 2016 2:48 PM JST
Flight conditions Visual Meteorological Conditions
Winds
Wind direction East (90°)
Wind speed 4 mph
Visibility 6.2 mi.
Sky condition
Ceiling unlimited
Sky clear
Temperature 77°F
Dewpoint 64°F
Altimeter 29.65 in.Hg
Precipitation
QF 2:25 AM
Derived measurements
Relative humidity 65%
Heat index 77°F
Density altitude 2090 ft.
Remarks
Ceiling and visibility OK.
No significant changes expected in the next two hours.
METAR UEEE 290530Z 09002MPS CAVOK 25/18 Q1004 R23L/09//60 NOSIG RMK QFE745

Settings

Location code

InnerDrive.Weather 4.0.5722.1 Release CLR 4.0.30319.34209
Copyright ©2015 Inner Drive Technology. All rights reserved. Portions Copyright ©1986-2015 David Braverman.

Find weather

Site navigation


Skip Navigation Links

Place info

Page info

PayPal - The safer, easier way to pay online!

Return home.

Copyright ©2016 Inner Drive Technology. Purveyors of fine, hand-crafted computer software. Page printed 2016-07-29T05:48:36 UTC.